sensor_id;sensor_type;location;lat;lon;timestamp;P1;durP1;ratioP1;P2;durP2;ratioP2
7583;SDS011;3833;41.764;26.204;2022-12-18T00:00:11;49.73;;;34.27;;
7583;SDS011;3833;41.764;26.204;2022-12-18T00:02:38;52.73;;;30.43;;
7583;SDS011;3833;41.764;26.204;2022-12-18T00:05:05;55.80;;;32.60;;
7583;SDS011;3833;41.764;26.204;2022-12-18T00:07:32;46.07;;;30.67;;
7583;SDS011;3833;41.764;26.204;2022-12-18T00:09:59;51.33;;;32.00;;
7583;SDS011;3833;41.764;26.204;2022-12-18T00:12:26;54.47;;;33.97;;
7583;SDS011;3833;41.764;26.204;2022-12-18T00:14:53;53.53;;;33.73;;
7583;SDS011;3833;41.764;26.204;2022-12-18T00:17:21;49.97;;;34.23;;
7583;SDS011;3833;41.764;26.204;2022-12-18T00:19:48;51.80;;;33.40;;
7583;SDS011;3833;41.764;26.204;2022-12-18T00:22:14;55.00;;;35.23;;
7583;SDS011;3833;41.764;26.204;2022-12-18T00:24:41;57.33;;;35.50;;
7583;SDS011;3833;41.764;26.204;2022-12-18T00:27:08;47.93;;;28.40;;
7583;SDS011;3833;41.764;26.204;2022-12-18T00:29:35;53.20;;;35.67;;
7583;SDS011;3833;41.764;26.204;2022-12-18T00:32:01;54.40;;;35.43;;
7583;SDS011;3833;41.764;26.204;2022-12-18T00:34:29;51.17;;;32.73;;
7583;SDS011;3833;41.764;26.204;2022-12-18T00:36:56;53.87;;;34.97;;
7583;SDS011;3833;41.764;26.204;2022-12-18T00:39:23;53.33;;;35.67;;
7583;SDS011;3833;41.764;26.204;2022-12-18T00:41:50;56.00;;;39.70;;
7583;SDS011;3833;41.764;26.204;2022-12-18T00:44:34;52.87;;;33.37;;
7583;SDS011;3833;41.764;26.204;2022-12-18T00:47:01;56.87;;;37.90;;
7583;SDS011;3833;41.764;26.204;2022-12-18T00:49:27;57.77;;;36.50;;
7583;SDS011;3833;41.764;26.204;2022-12-18T00:51:55;53.53;;;33.80;;
7583;SDS011;3833;41.764;26.204;2022-12-18T00:54:22;50.10;;;31.23;;
7583;SDS011;3833;41.764;26.204;2022-12-18T00:56:49;44.37;;;28.27;;
7583;SDS011;3833;41.764;26.204;2022-12-18T00:59:17;56.90;;;33.20;;
7583;SDS011;3833;41.764;26.204;2022-12-18T01:01:45;52.77;;;32.87;;
7583;SDS011;3833;41.764;26.204;2022-12-18T01:04:12;55.87;;;33.97;;
7583;SDS011;3833;41.764;26.204;2022-12-18T01:06:39;52.67;;;32.93;;
7583;SDS011;3833;41.764;26.204;2022-12-18T01:09:07;52.87;;;34.10;;
7583;SDS011;3833;41.764;26.204;2022-12-18T01:11:34;58.60;;;35.50;;
7583;SDS011;3833;41.764;26.204;2022-12-18T01:14:01;53.40;;;32.30;;
7583;SDS011;3833;41.764;26.204;2022-12-18T01:16:28;55.03;;;36.80;;
7583;SDS011;3833;41.764;26.204;2022-12-18T01:18:55;57.90;;;35.67;;
7583;SDS011;3833;41.764;26.204;2022-12-18T01:21:22;57.93;;;36.77;;
7583;SDS011;3833;41.764;26.204;2022-12-18T01:23:51;54.20;;;29.87;;
7583;SDS011;3833;41.764;26.204;2022-12-18T01:26:20;59.27;;;35.53;;
7583;SDS011;3833;41.764;26.204;2022-12-18T01:28:47;58.77;;;36.30;;
7583;SDS011;3833;41.764;26.204;2022-12-18T01:31:16;58.77;;;32.77;;
7583;SDS011;3833;41.764;26.204;2022-12-18T01:33:44;50.70;;;31.27;;
7583;SDS011;3833;41.764;26.204;2022-12-18T01:36:16;62.33;;;36.43;;
7583;SDS011;3833;41.764;26.204;2022-12-18T01:38:45;68.67;;;36.73;;
7583;SDS011;3833;41.764;26.204;2022-12-18T01:41:12;63.10;;;38.13;;
7583;SDS011;3833;41.764;26.204;2022-12-18T01:43:42;57.23;;;38.23;;
7583;SDS011;3833;41.764;26.204;2022-12-18T01:46:10;63.93;;;37.80;;
7583;SDS011;3833;41.764;26.204;2022-12-18T01:48:38;52.47;;;33.27;;
7583;SDS011;3833;41.764;26.204;2022-12-18T01:51:06;58.70;;;31.33;;
7583;SDS011;3833;41.764;26.204;2022-12-18T01:53:36;50.40;;;30.93;;
7583;SDS011;3833;41.764;26.204;2022-12-18T01:56:05;55.27;;;33.00;;
7583;SDS011;3833;41.764;26.204;2022-12-18T01:58:35;55.80;;;31.47;;
7583;SDS011;3833;41.764;26.204;2022-12-18T02:01:07;54.40;;;32.23;;
7583;SDS011;3833;41.764;26.204;2022-12-18T02:03:34;50.23;;;30.97;;
7583;SDS011;3833;41.764;26.204;2022-12-18T02:06:03;52.87;;;34.10;;
7583;SDS011;3833;41.764;26.204;2022-12-18T02:08:37;61.57;;;35.80;;
7583;SDS011;3833;41.764;26.204;2022-12-18T02:11:13;54.73;;;29.17;;
7583;SDS011;3833;41.764;26.204;2022-12-18T02:13:50;60.37;;;36.87;;
7583;SDS011;3833;41.764;26.204;2022-12-18T02:16:29;54.60;;;32.87;;
7583;SDS011;3833;41.764;26.204;2022-12-18T02:19:06;63.93;;;35.43;;
7583;SDS011;3833;41.764;26.204;2022-12-18T02:21:45;51.97;;;32.10;;
7583;SDS011;3833;41.764;26.204;2022-12-18T02:24:24;60.37;;;35.83;;
7583;SDS011;3833;41.764;26.204;2022-12-18T02:26:59;52.80;;;34.20;;
7583;SDS011;3833;41.764;26.204;2022-12-18T02:29:31;56.00;;;33.70;;
7583;SDS011;3833;41.764;26.204;2022-12-18T02:32:04;62.50;;;38.00;;
7583;SDS011;3833;41.764;26.204;2022-12-18T02:34:35;66.63;;;35.93;;
7583;SDS011;3833;41.764;26.204;2022-12-18T02:37:06;57.93;;;35.20;;
7583;SDS011;3833;41.764;26.204;2022-12-18T02:39:38;53.70;;;32.90;;
7583;SDS011;3833;41.764;26.204;2022-12-18T02:42:09;54.50;;;34.23;;
7583;SDS011;3833;41.764;26.204;2022-12-18T02:44:41;53.70;;;32.60;;
7583;SDS011;3833;41.764;26.204;2022-12-18T02:47:10;60.70;;;37.60;;
7583;SDS011;3833;41.764;26.204;2022-12-18T02:49:40;54.73;;;34.13;;
7583;SDS011;3833;41.764;26.204;2022-12-18T02:52:17;49.67;;;29.77;;
7583;SDS011;3833;41.764;26.204;2022-12-18T02:54:56;53.23;;;32.50;;
7583;SDS011;3833;41.764;26.204;2022-12-18T02:57:33;57.83;;;33.00;;
7583;SDS011;3833;41.764;26.204;2022-12-18T03:00:04;50.67;;;31.80;;
7583;SDS011;3833;41.764;26.204;2022-12-18T03:02:37;47.93;;;30.00;;
7583;SDS011;3833;41.764;26.204;2022-12-18T03:05:11;54.90;;;32.13;;
7583;SDS011;3833;41.764;26.204;2022-12-18T03:07:42;50.20;;;29.60;;
7583;SDS011;3833;41.764;26.204;2022-12-18T03:10:16;56.23;;;32.13;;
7583;SDS011;3833;41.764;26.204;2022-12-18T03:12:52;57.07;;;31.00;;
7583;SDS011;3833;41.764;26.204;2022-12-18T03:15:26;51.47;;;31.13;;
7583;SDS011;3833;41.764;26.204;2022-12-18T03:17:57;59.93;;;33.97;;
7583;SDS011;3833;41.764;26.204;2022-12-18T03:20:29;56.67;;;32.03;;
7583;SDS011;3833;41.764;26.204;2022-12-18T03:22:59;56.93;;;33.07;;
7583;SDS011;3833;41.764;26.204;2022-12-18T03:25:30;52.00;;;31.77;;
7583;SDS011;3833;41.764;26.204;2022-12-18T03:28:01;57.17;;;29.03;;
7583;SDS011;3833;41.764;26.204;2022-12-18T03:30:31;53.30;;;29.83;;
7583;SDS011;3833;41.764;26.204;2022-12-18T03:33:02;44.30;;;27.63;;
7583;SDS011;3833;41.764;26.204;2022-12-18T03:35:35;50.90;;;31.57;;
7583;SDS011;3833;41.764;26.204;2022-12-18T03:38:05;49.77;;;31.13;;
7583;SDS011;3833;41.764;26.204;2022-12-18T03:40:34;49.63;;;30.53;;
7583;SDS011;3833;41.764;26.204;2022-12-18T03:43:08;49.47;;;29.00;;
7583;SDS011;3833;41.764;26.204;2022-12-18T03:45:43;53.67;;;29.40;;
7583;SDS011;3833;41.764;26.204;2022-12-18T03:48:18;52.30;;;31.93;;
7583;SDS011;3833;41.764;26.204;2022-12-18T03:50:49;54.40;;;31.03;;
7583;SDS011;3833;41.764;26.204;2022-12-18T03:53:24;52.73;;;28.40;;
7583;SDS011;3833;41.764;26.204;2022-12-18T03:55:58;50.20;;;31.77;;
7583;SDS011;3833;41.764;26.204;2022-12-18T03:58:27;48.27;;;29.17;;
7583;SDS011;3833;41.764;26.204;2022-12-18T04:00:58;44.30;;;29.10;;
7583;SDS011;3833;41.764;26.204;2022-12-18T04:03:30;54.90;;;31.00;;
7583;SDS011;3833;41.764;26.204;2022-12-18T04:05:58;50.03;;;27.67;;
7583;SDS011;3833;41.764;26.204;2022-12-18T04:08:27;56.50;;;31.13;;
7583;SDS011;3833;41.764;26.204;2022-12-18T04:10:55;46.97;;;29.03;;
7583;SDS011;3833;41.764;26.204;2022-12-18T04:13:22;48.33;;;29.30;;
7583;SDS011;3833;41.764;26.204;2022-12-18T04:15:51;44.93;;;26.93;;
7583;SDS011;3833;41.764;26.204;2022-12-18T04:18:17;43.37;;;26.43;;
7583;SDS011;3833;41.764;26.204;2022-12-18T04:20:44;57.63;;;31.90;;
7583;SDS011;3833;41.764;26.204;2022-12-18T04:23:11;50.67;;;29.37;;
7583;SDS011;3833;41.764;26.204;2022-12-18T04:25:38;46.40;;;29.90;;
7583;SDS011;3833;41.764;26.204;2022-12-18T04:28:05;42.20;;;25.60;;
7583;SDS011;3833;41.764;26.204;2022-12-18T04:30:32;41.87;;;25.37;;
7583;SDS011;3833;41.764;26.204;2022-12-18T04:33:00;41.67;;;27.37;;
7583;SDS011;3833;41.764;26.204;2022-12-18T04:35:27;43.60;;;27.67;;
7583;SDS011;3833;41.764;26.204;2022-12-18T04:37:53;46.50;;;28.97;;
7583;SDS011;3833;41.764;26.204;2022-12-18T04:40:20;47.33;;;30.47;;
7583;SDS011;3833;41.764;26.204;2022-12-18T04:42:47;47.77;;;29.73;;
7583;SDS011;3833;41.764;26.204;2022-12-18T04:45:14;51.13;;;32.80;;
7583;SDS011;3833;41.764;26.204;2022-12-18T04:47:41;49.37;;;31.23;;
7583;SDS011;3833;41.764;26.204;2022-12-18T04:50:09;48.87;;;31.77;;
7583;SDS011;3833;41.764;26.204;2022-12-18T04:52:36;46.73;;;29.73;;
7583;SDS011;3833;41.764;26.204;2022-12-18T04:55:03;47.87;;;30.47;;
7583;SDS011;3833;41.764;26.204;2022-12-18T04:57:30;47.87;;;30.97;;
7583;SDS011;3833;41.764;26.204;2022-12-18T04:59:56;49.03;;;31.93;;
7583;SDS011;3833;41.764;26.204;2022-12-18T05:02:23;52.43;;;32.90;;
7583;SDS011;3833;41.764;26.204;2022-12-18T05:04:50;48.87;;;32.07;;
7583;SDS011;3833;41.764;26.204;2022-12-18T05:07:18;49.60;;;32.37;;
7583;SDS011;3833;41.764;26.204;2022-12-18T05:09:45;53.17;;;33.57;;
7583;SDS011;3833;41.764;26.204;2022-12-18T05:12:11;58.07;;;33.87;;
7583;SDS011;3833;41.764;26.204;2022-12-18T05:14:38;43.57;;;30.90;;
7583;SDS011;3833;41.764;26.204;2022-12-18T05:17:05;49.70;;;32.67;;
7583;SDS011;3833;41.764;26.204;2022-12-18T05:19:32;51.87;;;33.83;;
7583;SDS011;3833;41.764;26.204;2022-12-18T05:21:58;51.07;;;30.90;;
7583;SDS011;3833;41.764;26.204;2022-12-18T05:24:27;48.77;;;32.37;;
7583;SDS011;3833;41.764;26.204;2022-12-18T05:26:54;50.50;;;33.33;;
7583;SDS011;3833;41.764;26.204;2022-12-18T05:29:21;50.13;;;32.60;;
7583;SDS011;3833;41.764;26.204;2022-12-18T05:31:48;47.57;;;32.73;;
7583;SDS011;3833;41.764;26.204;2022-12-18T05:34:15;46.63;;;31.67;;
7583;SDS011;3833;41.764;26.204;2022-12-18T05:36:42;44.30;;;30.30;;
7583;SDS011;3833;41.764;26.204;2022-12-18T05:39:08;49.50;;;34.30;;
7583;SDS011;3833;41.764;26.204;2022-12-18T05:41:37;46.33;;;32.27;;
7583;SDS011;3833;41.764;26.204;2022-12-18T05:44:04;48.50;;;31.57;;
7583;SDS011;3833;41.764;26.204;2022-12-18T05:46:30;52.43;;;30.83;;
7583;SDS011;3833;41.764;26.204;2022-12-18T05:48:58;44.77;;;31.07;;
7583;SDS011;3833;41.764;26.204;2022-12-18T05:51:26;51.27;;;34.70;;
7583;SDS011;3833;41.764;26.204;2022-12-18T05:53:53;53.73;;;32.33;;
7583;SDS011;3833;41.764;26.204;2022-12-18T05:56:20;43.57;;;31.50;;
7583;SDS011;3833;41.764;26.204;2022-12-18T05:58:52;48.37;;;32.63;;
7583;SDS011;3833;41.764;26.204;2022-12-18T06:01:20;55.10;;;37.20;;
7583;SDS011;3833;41.764;26.204;2022-12-18T06:03:48;45.63;;;30.63;;
7583;SDS011;3833;41.764;26.204;2022-12-18T06:06:15;42.23;;;29.53;;
7583;SDS011;3833;41.764;26.204;2022-12-18T06:08:43;45.50;;;29.50;;
7583;SDS011;3833;41.764;26.204;2022-12-18T06:11:10;44.40;;;30.47;;
7583;SDS011;3833;41.764;26.204;2022-12-18T06:13:37;49.50;;;30.93;;
7583;SDS011;3833;41.764;26.204;2022-12-18T06:16:06;40.27;;;27.83;;
7583;SDS011;3833;41.764;26.204;2022-12-18T06:18:33;37.23;;;26.03;;
7583;SDS011;3833;41.764;26.204;2022-12-18T06:21:02;43.37;;;30.20;;
7583;SDS011;3833;41.764;26.204;2022-12-18T06:23:29;41.43;;;28.33;;
7583;SDS011;3833;41.764;26.204;2022-12-18T06:25:56;42.10;;;28.80;;
7583;SDS011;3833;41.764;26.204;2022-12-18T06:28:22;40.50;;;28.43;;
7583;SDS011;3833;41.764;26.204;2022-12-18T06:30:49;42.33;;;31.33;;
7583;SDS011;3833;41.764;26.204;2022-12-18T06:33:17;45.23;;;30.93;;
7583;SDS011;3833;41.764;26.204;2022-12-18T06:35:44;45.63;;;31.33;;
7583;SDS011;3833;41.764;26.204;2022-12-18T06:38:11;39.50;;;28.80;;
7583;SDS011;3833;41.764;26.204;2022-12-18T06:40:37;43.90;;;28.43;;
7583;SDS011;3833;41.764;26.204;2022-12-18T06:43:05;40.23;;;28.10;;
7583;SDS011;3833;41.764;26.204;2022-12-18T06:45:32;50.27;;;31.90;;
7583;SDS011;3833;41.764;26.204;2022-12-18T06:47:59;41.73;;;29.23;;
7583;SDS011;3833;41.764;26.204;2022-12-18T06:50:30;46.67;;;32.97;;
7583;SDS011;3833;41.764;26.204;2022-12-18T06:52:57;47.33;;;32.67;;
7583;SDS011;3833;41.764;26.204;2022-12-18T06:55:23;46.07;;;34.50;;
7583;SDS011;3833;41.764;26.204;2022-12-18T06:57:50;53.87;;;36.37;;
7583;SDS011;3833;41.764;26.204;2022-12-18T07:00:17;46.80;;;33.53;;
7583;SDS011;3833;41.764;26.204;2022-12-18T07:02:44;45.50;;;33.87;;
7583;SDS011;3833;41.764;26.204;2022-12-18T07:05:11;50.67;;;34.27;;
7583;SDS011;3833;41.764;26.204;2022-12-18T07:07:39;61.27;;;36.47;;
7583;SDS011;3833;41.764;26.204;2022-12-18T07:10:06;54.50;;;36.47;;
7583;SDS011;3833;41.764;26.204;2022-12-18T07:12:33;56.30;;;37.20;;
7583;SDS011;3833;41.764;26.204;2022-12-18T07:15:01;50.17;;;33.33;;
7583;SDS011;3833;41.764;26.204;2022-12-18T07:17:29;48.63;;;35.07;;
7583;SDS011;3833;41.764;26.204;2022-12-18T07:19:55;47.53;;;31.97;;
7583;SDS011;3833;41.764;26.204;2022-12-18T07:22:22;44.20;;;31.33;;
7583;SDS011;3833;41.764;26.204;2022-12-18T07:24:52;45.87;;;32.93;;
7583;SDS011;3833;41.764;26.204;2022-12-18T07:27:19;47.70;;;32.47;;
7583;SDS011;3833;41.764;26.204;2022-12-18T07:29:45;48.83;;;31.40;;
7583;SDS011;3833;41.764;26.204;2022-12-18T07:32:12;42.93;;;30.30;;
7583;SDS011;3833;41.764;26.204;2022-12-18T07:34:39;42.60;;;32.00;;
7583;SDS011;3833;41.764;26.204;2022-12-18T07:37:06;45.17;;;30.70;;
7583;SDS011;3833;41.764;26.204;2022-12-18T07:39:33;41.57;;;27.97;;
7583;SDS011;3833;41.764;26.204;2022-12-18T07:42:03;40.33;;;29.40;;
7583;SDS011;3833;41.764;26.204;2022-12-18T07:44:48;43.47;;;30.37;;
7583;SDS011;3833;41.764;26.204;2022-12-18T07:47:14;41.70;;;28.50;;
7583;SDS011;3833;41.764;26.204;2022-12-18T07:49:41;46.43;;;30.07;;
7583;SDS011;3833;41.764;26.204;2022-12-18T07:52:08;45.93;;;33.00;;
7583;SDS011;3833;41.764;26.204;2022-12-18T07:54:37;48.20;;;32.03;;
7583;SDS011;3833;41.764;26.204;2022-12-18T07:57:05;43.63;;;25.77;;
7583;SDS011;3833;41.764;26.204;2022-12-18T07:59:32;28.13;;;20.17;;
7583;SDS011;3833;41.764;26.204;2022-12-18T08:01:59;35.87;;;24.47;;
7583;SDS011;3833;41.764;26.204;2022-12-18T08:04:25;33.13;;;24.53;;
7583;SDS011;3833;41.764;26.204;2022-12-18T08:06:53;37.07;;;25.70;;
7583;SDS011;3833;41.764;26.204;2022-12-18T08:09:19;42.23;;;27.57;;
7583;SDS011;3833;41.764;26.204;2022-12-18T08:11:46;40.33;;;25.57;;
7583;SDS011;3833;41.764;26.204;2022-12-18T08:14:14;39.17;;;28.93;;
7583;SDS011;3833;41.764;26.204;2022-12-18T08:16:41;40.07;;;29.30;;
7583;SDS011;3833;41.764;26.204;2022-12-18T08:19:08;43.30;;;29.97;;
7583;SDS011;3833;41.764;26.204;2022-12-18T08:21:35;41.53;;;29.03;;
7583;SDS011;3833;41.764;26.204;2022-12-18T08:24:02;38.23;;;29.30;;
7583;SDS011;3833;41.764;26.204;2022-12-18T08:26:29;44.97;;;30.77;;
7583;SDS011;3833;41.764;26.204;2022-12-18T08:28:57;47.03;;;32.30;;
7583;SDS011;3833;41.764;26.204;2022-12-18T08:31:27;46.20;;;32.23;;
7583;SDS011;3833;41.764;26.204;2022-12-18T08:33:55;49.63;;;31.90;;
7583;SDS011;3833;41.764;26.204;2022-12-18T08:36:22;44.23;;;28.30;;
7583;SDS011;3833;41.764;26.204;2022-12-18T08:38:50;35.50;;;24.80;;
7583;SDS011;3833;41.764;26.204;2022-12-18T08:41:17;30.93;;;22.27;;
7583;SDS011;3833;41.764;26.204;2022-12-18T08:43:47;32.87;;;21.97;;
7583;SDS011;3833;41.764;26.204;2022-12-18T08:46:34;37.30;;;23.77;;
7583;SDS011;3833;41.764;26.204;2022-12-18T08:49:01;37.80;;;26.33;;
7583;SDS011;3833;41.764;26.204;2022-12-18T08:51:28;30.10;;;21.00;;
7583;SDS011;3833;41.764;26.204;2022-12-18T08:53:55;33.47;;;24.80;;
7583;SDS011;3833;41.764;26.204;2022-12-18T08:56:22;40.57;;;26.87;;
7583;SDS011;3833;41.764;26.204;2022-12-18T08:58:50;33.67;;;25.70;;
7583;SDS011;3833;41.764;26.204;2022-12-18T09:01:18;46.73;;;31.53;;
7583;SDS011;3833;41.764;26.204;2022-12-18T09:03:47;32.00;;;23.10;;
7583;SDS011;3833;41.764;26.204;2022-12-18T09:06:14;35.97;;;25.73;;
7583;SDS011;3833;41.764;26.204;2022-12-18T09:08:41;28.17;;;21.13;;
7583;SDS011;3833;41.764;26.204;2022-12-18T09:11:10;23.60;;;17.27;;
7583;SDS011;3833;41.764;26.204;2022-12-18T09:13:39;24.03;;;19.00;;
7583;SDS011;3833;41.764;26.204;2022-12-18T09:16:06;23.23;;;19.07;;
7583;SDS011;3833;41.764;26.204;2022-12-18T09:18:33;27.83;;;20.70;;
7583;SDS011;3833;41.764;26.204;2022-12-18T09:21:06;26.97;;;19.63;;
7583;SDS011;3833;41.764;26.204;2022-12-18T09:23:35;27.33;;;21.00;;
7583;SDS011;3833;41.764;26.204;2022-12-18T09:26:02;24.83;;;20.03;;
7583;SDS011;3833;41.764;26.204;2022-12-18T09:28:29;27.77;;;20.53;;
7583;SDS011;3833;41.764;26.204;2022-12-18T09:30:56;27.43;;;19.80;;
7583;SDS011;3833;41.764;26.204;2022-12-18T09:33:22;21.90;;;16.47;;
7583;SDS011;3833;41.764;26.204;2022-12-18T09:35:49;22.63;;;19.30;;
7583;SDS011;3833;41.764;26.204;2022-12-18T09:38:18;30.17;;;19.60;;
7583;SDS011;3833;41.764;26.204;2022-12-18T09:40:46;25.13;;;19.47;;
7583;SDS011;3833;41.764;26.204;2022-12-18T09:43:16;24.93;;;19.67;;
7583;SDS011;3833;41.764;26.204;2022-12-18T09:45:47;29.00;;;21.50;;
7583;SDS011;3833;41.764;26.204;2022-12-18T09:48:21;35.03;;;22.47;;
7583;SDS011;3833;41.764;26.204;2022-12-18T09:50:51;25.53;;;18.63;;
7583;SDS011;3833;41.764;26.204;2022-12-18T09:53:24;25.90;;;17.67;;
7583;SDS011;3833;41.764;26.204;2022-12-18T09:55:56;20.07;;;16.27;;
7583;SDS011;3833;41.764;26.204;2022-12-18T09:58:24;15.63;;;10.57;;
7583;SDS011;3833;41.764;26.204;2022-12-18T10:00:55;14.20;;;10.90;;
7583;SDS011;3833;41.764;26.204;2022-12-18T10:03:22;13.10;;;10.17;;
7583;SDS011;3833;41.764;26.204;2022-12-18T10:05:53;15.90;;;11.03;;
7583;SDS011;3833;41.764;26.204;2022-12-18T10:08:33;17.53;;;12.17;;
7583;SDS011;3833;41.764;26.204;2022-12-18T10:11:20;19.63;;;13.27;;
7583;SDS011;3833;41.764;26.204;2022-12-18T10:13:56;22.27;;;15.60;;
7583;SDS011;3833;41.764;26.204;2022-12-18T10:16:27;20.20;;;14.10;;
7583;SDS011;3833;41.764;26.204;2022-12-18T10:19:05;15.47;;;11.93;;
7583;SDS011;3833;41.764;26.204;2022-12-18T10:21:45;18.27;;;13.87;;
7583;SDS011;3833;41.764;26.204;2022-12-18T10:24:21;23.70;;;16.17;;
7583;SDS011;3833;41.764;26.204;2022-12-18T10:26:55;23.47;;;16.93;;
7583;SDS011;3833;41.764;26.204;2022-12-18T10:29:33;13.93;;;11.23;;
7583;SDS011;3833;41.764;26.204;2022-12-18T10:32:00;16.20;;;11.87;;
7583;SDS011;3833;41.764;26.204;2022-12-18T10:34:27;16.57;;;12.43;;
7583;SDS011;3833;41.764;26.204;2022-12-18T10:36:54;21.93;;;14.43;;
7583;SDS011;3833;41.764;26.204;2022-12-18T10:39:23;20.07;;;15.20;;
7583;SDS011;3833;41.764;26.204;2022-12-18T10:41:51;25.90;;;17.17;;
7583;SDS011;3833;41.764;26.204;2022-12-18T10:44:19;19.70;;;15.80;;
7583;SDS011;3833;41.764;26.204;2022-12-18T10:46:48;23.70;;;17.00;;
7583;SDS011;3833;41.764;26.204;2022-12-18T10:49:19;21.70;;;15.13;;
7583;SDS011;3833;41.764;26.204;2022-12-18T10:51:49;23.17;;;15.60;;
7583;SDS011;3833;41.764;26.204;2022-12-18T10:54:17;19.33;;;15.67;;
7583;SDS011;3833;41.764;26.204;2022-12-18T10:56:48;24.70;;;17.57;;
7583;SDS011;3833;41.764;26.204;2022-12-18T10:59:16;21.40;;;14.70;;
7583;SDS011;3833;41.764;26.204;2022-12-18T11:01:45;19.47;;;15.40;;
7583;SDS011;3833;41.764;26.204;2022-12-18T11:04:16;21.40;;;15.73;;
7583;SDS011;3833;41.764;26.204;2022-12-18T11:06:55;23.17;;;15.73;;
7583;SDS011;3833;41.764;26.204;2022-12-18T11:09:24;18.13;;;13.97;;
7583;SDS011;3833;41.764;26.204;2022-12-18T11:11:54;12.20;;;8.87;;
7583;SDS011;3833;41.764;26.204;2022-12-18T11:14:25;11.57;;;9.27;;
7583;SDS011;3833;41.764;26.204;2022-12-18T11:16:54;9.83;;;7.97;;
7583;SDS011;3833;41.764;26.204;2022-12-18T11:19:28;9.07;;;7.00;;
7583;SDS011;3833;41.764;26.204;2022-12-18T11:21:58;7.83;;;6.67;;
7583;SDS011;3833;41.764;26.204;2022-12-18T11:24:27;7.47;;;5.87;;
7583;SDS011;3833;41.764;26.204;2022-12-18T11:26:59;14.17;;;9.50;;
7583;SDS011;3833;41.764;26.204;2022-12-18T11:29:34;9.20;;;7.13;;
7583;SDS011;3833;41.764;26.204;2022-12-18T11:32:13;9.23;;;5.67;;
7583;SDS011;3833;41.764;26.204;2022-12-18T11:34:52;8.37;;;7.37;;
7583;SDS011;3833;41.764;26.204;2022-12-18T11:37:23;29.97;;;26.13;;
7583;SDS011;3833;41.764;26.204;2022-12-18T11:39:51;18.13;;;14.93;;
7583;SDS011;3833;41.764;26.204;2022-12-18T11:42:24;19.20;;;15.30;;
7583;SDS011;3833;41.764;26.204;2022-12-18T11:44:58;17.33;;;13.57;;
7583;SDS011;3833;41.764;26.204;2022-12-18T11:47:29;12.57;;;9.50;;
7583;SDS011;3833;41.764;26.204;2022-12-18T11:50:09;11.97;;;9.87;;
7583;SDS011;3833;41.764;26.204;2022-12-18T11:52:39;12.90;;;9.63;;
7583;SDS011;3833;41.764;26.204;2022-12-18T11:55:10;15.97;;;11.93;;
7583;SDS011;3833;41.764;26.204;2022-12-18T11:57:43;20.87;;;14.57;;
7583;SDS011;3833;41.764;26.204;2022-12-18T12:00:21;24.23;;;18.50;;
7583;SDS011;3833;41.764;26.204;2022-12-18T12:03:06;18.67;;;15.30;;
7583;SDS011;3833;41.764;26.204;2022-12-18T12:05:48;21.23;;;14.07;;
7583;SDS011;3833;41.764;26.204;2022-12-18T12:08:26;21.77;;;16.00;;
7583;SDS011;3833;41.764;26.204;2022-12-18T12:11:01;16.33;;;12.50;;
7583;SDS011;3833;41.764;26.204;2022-12-18T12:13:38;13.37;;;10.40;;
7583;SDS011;3833;41.764;26.204;2022-12-18T12:16:14;11.20;;;9.13;;
7583;SDS011;3833;41.764;26.204;2022-12-18T12:18:48;9.83;;;7.83;;
7583;SDS011;3833;41.764;26.204;2022-12-18T12:21:25;8.83;;;7.60;;
7583;SDS011;3833;41.764;26.204;2022-12-18T12:24:00;10.03;;;8.07;;
7583;SDS011;3833;41.764;26.204;2022-12-18T12:26:38;11.27;;;8.30;;
7583;SDS011;3833;41.764;26.204;2022-12-18T12:29:20;12.73;;;8.73;;
7583;SDS011;3833;41.764;26.204;2022-12-18T12:32:02;9.23;;;7.80;;
7583;SDS011;3833;41.764;26.204;2022-12-18T12:34:41;8.10;;;6.73;;
7583;SDS011;3833;41.764;26.204;2022-12-18T12:37:21;8.87;;;6.90;;
7583;SDS011;3833;41.764;26.204;2022-12-18T12:39:55;8.50;;;6.33;;
7583;SDS011;3833;41.764;26.204;2022-12-18T12:42:25;8.90;;;7.17;;
7583;SDS011;3833;41.764;26.204;2022-12-18T12:45:16;12.50;;;9.40;;
7583;SDS011;3833;41.764;26.204;2022-12-18T12:47:48;12.13;;;9.27;;
7583;SDS011;3833;41.764;26.204;2022-12-18T12:50:18;10.57;;;8.67;;
7583;SDS011;3833;41.764;26.204;2022-12-18T12:52:48;11.57;;;8.33;;
7583;SDS011;3833;41.764;26.204;2022-12-18T12:55:19;13.50;;;10.07;;
7583;SDS011;3833;41.764;26.204;2022-12-18T12:57:51;19.90;;;14.43;;
7583;SDS011;3833;41.764;26.204;2022-12-18T13:00:29;12.63;;;10.03;;
7583;SDS011;3833;41.764;26.204;2022-12-18T13:03:01;14.63;;;11.07;;
7583;SDS011;3833;41.764;26.204;2022-12-18T13:05:38;16.93;;;11.13;;
7583;SDS011;3833;41.764;26.204;2022-12-18T13:08:12;15.43;;;11.67;;
7583;SDS011;3833;41.764;26.204;2022-12-18T13:10:50;15.50;;;10.50;;
7583;SDS011;3833;41.764;26.204;2022-12-18T13:13:47;13.13;;;9.80;;
7583;SDS011;3833;41.764;26.204;2022-12-18T13:16:16;13.17;;;9.10;;
7583;SDS011;3833;41.764;26.204;2022-12-18T13:18:48;12.77;;;9.50;;
7583;SDS011;3833;41.764;26.204;2022-12-18T13:21:18;12.73;;;9.67;;
7583;SDS011;3833;41.764;26.204;2022-12-18T13:23:49;12.17;;;8.83;;
7583;SDS011;3833;41.764;26.204;2022-12-18T13:29:04;12.10;;;9.93;;
7583;SDS011;3833;41.764;26.204;2022-12-18T13:34:36;13.53;;;11.00;;
7583;SDS011;3833;41.764;26.204;2022-12-18T13:46:20;18.57;;;14.43;;
7583;SDS011;3833;41.764;26.204;2022-12-18T13:48:53;12.33;;;9.63;;
7583;SDS011;3833;41.764;26.204;2022-12-18T13:51:24;15.33;;;10.90;;
7583;SDS011;3833;41.764;26.204;2022-12-18T13:53:53;13.27;;;10.83;;
7583;SDS011;3833;41.764;26.204;2022-12-18T13:56:24;13.37;;;9.83;;
7583;SDS011;3833;41.764;26.204;2022-12-18T14:01:47;14.83;;;11.10;;
7583;SDS011;3833;41.764;26.204;2022-12-18T14:04:18;15.80;;;11.93;;
7583;SDS011;3833;41.764;26.204;2022-12-18T14:06:55;19.37;;;14.47;;
7583;SDS011;3833;41.764;26.204;2022-12-18T14:09:25;25.23;;;16.17;;
7583;SDS011;3833;41.764;26.204;2022-12-18T14:11:54;25.57;;;16.43;;
7583;SDS011;3833;41.764;26.204;2022-12-18T14:14:44;31.83;;;19.77;;
7583;SDS011;3833;41.764;26.204;2022-12-18T14:17:13;18.73;;;12.47;;
7583;SDS011;3833;41.764;26.204;2022-12-18T14:19:42;16.90;;;12.30;;
7583;SDS011;3833;41.764;26.204;2022-12-18T14:22:16;13.87;;;11.40;;
7583;SDS011;3833;41.764;26.204;2022-12-18T14:24:45;14.73;;;10.60;;
7583;SDS011;3833;41.764;26.204;2022-12-18T14:27:19;38.53;;;23.53;;
7583;SDS011;3833;41.764;26.204;2022-12-18T14:29:48;18.43;;;13.23;;
7583;SDS011;3833;41.764;26.204;2022-12-18T14:32:16;13.77;;;10.10;;
7583;SDS011;3833;41.764;26.204;2022-12-18T14:34:44;14.43;;;9.87;;
7583;SDS011;3833;41.764;26.204;2022-12-18T14:37:13;18.83;;;14.70;;
7583;SDS011;3833;41.764;26.204;2022-12-18T14:39:44;12.50;;;11.00;;
7583;SDS011;3833;41.764;26.204;2022-12-18T14:42:19;34.97;;;30.70;;
7583;SDS011;3833;41.764;26.204;2022-12-18T14:44:46;30.47;;;23.00;;
7583;SDS011;3833;41.764;26.204;2022-12-18T14:47:13;70.83;;;52.27;;
7583;SDS011;3833;41.764;26.204;2022-12-18T14:49:41;20.93;;;16.83;;
7583;SDS011;3833;41.764;26.204;2022-12-18T14:52:15;22.40;;;14.43;;
7583;SDS011;3833;41.764;26.204;2022-12-18T14:54:49;14.60;;;12.07;;
7583;SDS011;3833;41.764;26.204;2022-12-18T14:57:18;14.57;;;11.33;;
7583;SDS011;3833;41.764;26.204;2022-12-18T14:59:49;15.53;;;12.57;;
7583;SDS011;3833;41.764;26.204;2022-12-18T15:02:18;16.63;;;11.13;;
7583;SDS011;3833;41.764;26.204;2022-12-18T15:04:48;15.60;;;11.63;;
7583;SDS011;3833;41.764;26.204;2022-12-18T15:07:26;18.83;;;12.43;;
7583;SDS011;3833;41.764;26.204;2022-12-18T15:10:08;13.57;;;10.97;;